sensor_id;sensor_type;location;lat;lon;timestamp;P1;durP1;ratioP1;P2;durP2;ratioP2
61590;SDS011;71994;52.410;-1.966;2023-08-24T00:00:29;4.47;;;2.60;;
61590;SDS011;71994;52.410;-1.966;2023-08-24T00:03:41;3.65;;;2.30;;
61590;SDS011;71994;52.410;-1.966;2023-08-24T00:06:53;3.88;;;2.35;;
61590;SDS011;71994;52.410;-1.966;2023-08-24T00:09:59;4.88;;;2.53;;
61590;SDS011;71994;52.410;-1.966;2023-08-24T00:13:09;3.65;;;2.53;;
61590;SDS011;71994;52.410;-1.966;2023-08-24T00:16:22;3.33;;;2.47;;
61590;SDS011;71994;52.410;-1.966;2023-08-24T00:19:29;3.53;;;2.30;;
61590;SDS011;71994;52.410;-1.966;2023-08-24T00:22:40;3.22;;;2.28;;
61590;SDS011;71994;52.410;-1.966;2023-08-24T00:25:46;3.40;;;2.10;;
61590;SDS011;71994;52.410;-1.966;2023-08-24T00:28:53;3.03;;;2.00;;
61590;SDS011;71994;52.410;-1.966;2023-08-24T00:31:59;3.80;;;2.45;;
61590;SDS011;71994;52.410;-1.966;2023-08-24T00:35:06;3.63;;;2.28;;
61590;SDS011;71994;52.410;-1.966;2023-08-24T00:38:17;2.88;;;1.90;;
61590;SDS011;71994;52.410;-1.966;2023-08-24T00:41:24;4.82;;;2.63;;
61590;SDS011;71994;52.410;-1.966;2023-08-24T00:44:30;3.75;;;2.00;;
61590;SDS011;71994;52.410;-1.966;2023-08-24T00:47:38;3.40;;;2.10;;
61590;SDS011;71994;52.410;-1.966;2023-08-24T00:50:46;2.92;;;1.92;;
61590;SDS011;71994;52.410;-1.966;2023-08-24T00:53:56;3.25;;;2.20;;
61590;SDS011;71994;52.410;-1.966;2023-08-24T00:57:02;3.90;;;2.58;;
61590;SDS011;71994;52.410;-1.966;2023-08-24T01:00:09;3.38;;;2.13;;
61590;SDS011;71994;52.410;-1.966;2023-08-24T01:03:16;3.63;;;2.22;;
61590;SDS011;71994;52.410;-1.966;2023-08-24T01:06:23;4.15;;;2.30;;
61590;SDS011;71994;52.410;-1.966;2023-08-24T01:09:32;2.85;;;2.20;;
61590;SDS011;71994;52.410;-1.966;2023-08-24T01:12:44;3.92;;;2.28;;
61590;SDS011;71994;52.410;-1.966;2023-08-24T01:15:58;2.85;;;2.15;;
61590;SDS011;71994;52.410;-1.966;2023-08-24T01:19:10;2.95;;;2.10;;
61590;SDS011;71994;52.410;-1.966;2023-08-24T01:22:32;3.42;;;1.92;;
61590;SDS011;71994;52.410;-1.966;2023-08-24T01:25:49;3.60;;;2.30;;
61590;SDS011;71994;52.410;-1.966;2023-08-24T01:29:00;2.72;;;2.10;;
61590;SDS011;71994;52.410;-1.966;2023-08-24T01:32:09;3.72;;;2.50;;
61590;SDS011;71994;52.410;-1.966;2023-08-24T01:35:19;3.55;;;2.30;;
61590;SDS011;71994;52.410;-1.966;2023-08-24T01:38:25;3.30;;;2.33;;
61590;SDS011;71994;52.410;-1.966;2023-08-24T01:41:33;3.35;;;2.13;;
61590;SDS011;71994;52.410;-1.966;2023-08-24T01:44:48;3.00;;;2.30;;
61590;SDS011;71994;52.410;-1.966;2023-08-24T01:47:57;3.47;;;2.30;;
61590;SDS011;71994;52.410;-1.966;2023-08-24T01:51:07;4.35;;;2.22;;
61590;SDS011;71994;52.410;-1.966;2023-08-24T01:54:15;3.13;;;2.40;;
61590;SDS011;71994;52.410;-1.966;2023-08-24T01:57:21;3.28;;;2.42;;
61590;SDS011;71994;52.410;-1.966;2023-08-24T02:00:30;4.18;;;2.40;;
61590;SDS011;71994;52.410;-1.966;2023-08-24T02:03:36;3.20;;;2.22;;
61590;SDS011;71994;52.410;-1.966;2023-08-24T02:06:46;3.43;;;2.37;;
61590;SDS011;71994;52.410;-1.966;2023-08-24T02:09:52;2.90;;;2.15;;
61590;SDS011;71994;52.410;-1.966;2023-08-24T02:12:58;3.10;;;2.22;;
61590;SDS011;71994;52.410;-1.966;2023-08-24T02:16:10;3.67;;;1.90;;
61590;SDS011;71994;52.410;-1.966;2023-08-24T02:19:17;2.92;;;2.22;;
61590;SDS011;71994;52.410;-1.966;2023-08-24T02:22:24;2.83;;;2.08;;
61590;SDS011;71994;52.410;-1.966;2023-08-24T02:25:31;3.20;;;2.20;;
61590;SDS011;71994;52.410;-1.966;2023-08-24T02:28:38;3.10;;;2.13;;
61590;SDS011;71994;52.410;-1.966;2023-08-24T02:31:48;4.13;;;2.60;;
61590;SDS011;71994;52.410;-1.966;2023-08-24T02:34:55;3.40;;;2.30;;
61590;SDS011;71994;52.410;-1.966;2023-08-24T02:38:05;3.78;;;2.60;;
61590;SDS011;71994;52.410;-1.966;2023-08-24T02:41:11;2.97;;;2.20;;
61590;SDS011;71994;52.410;-1.966;2023-08-24T02:44:18;3.42;;;2.50;;
61590;SDS011;71994;52.410;-1.966;2023-08-24T02:47:27;3.35;;;2.25;;
61590;SDS011;71994;52.410;-1.966;2023-08-24T02:50:33;4.30;;;2.30;;
61590;SDS011;71994;52.410;-1.966;2023-08-24T02:53:39;3.25;;;2.20;;
61590;SDS011;71994;52.410;-1.966;2023-08-24T02:56:46;2.95;;;1.98;;
61590;SDS011;71994;52.410;-1.966;2023-08-24T02:59:52;2.97;;;2.38;;
61590;SDS011;71994;52.410;-1.966;2023-08-24T03:03:02;2.85;;;2.20;;
61590;SDS011;71994;52.410;-1.966;2023-08-24T03:06:09;3.40;;;2.00;;
61590;SDS011;71994;52.410;-1.966;2023-08-24T03:09:15;4.00;;;2.40;;
61590;SDS011;71994;52.410;-1.966;2023-08-24T03:12:25;3.15;;;2.20;;
61590;SDS011;71994;52.410;-1.966;2023-08-24T03:15:32;3.05;;;2.15;;
61590;SDS011;71994;52.410;-1.966;2023-08-24T03:18:43;3.35;;;2.03;;
61590;SDS011;71994;52.410;-1.966;2023-08-24T03:21:53;3.92;;;2.40;;
61590;SDS011;71994;52.410;-1.966;2023-08-24T03:24:59;3.03;;;2.03;;
61590;SDS011;71994;52.410;-1.966;2023-08-24T03:28:06;3.38;;;2.28;;
61590;SDS011;71994;52.410;-1.966;2023-08-24T03:31:13;2.92;;;2.08;;
61590;SDS011;71994;52.410;-1.966;2023-08-24T03:34:22;3.20;;;2.50;;
61590;SDS011;71994;52.410;-1.966;2023-08-24T03:37:29;2.95;;;2.00;;
61590;SDS011;71994;52.410;-1.966;2023-08-24T03:40:36;3.05;;;2.17;;
61590;SDS011;71994;52.410;-1.966;2023-08-24T03:43:42;3.42;;;2.30;;
61590;SDS011;71994;52.410;-1.966;2023-08-24T03:46:48;3.30;;;2.13;;
61590;SDS011;71994;52.410;-1.966;2023-08-24T03:50:00;2.75;;;2.08;;
61590;SDS011;71994;52.410;-1.966;2023-08-24T03:53:08;2.85;;;2.08;;
61590;SDS011;71994;52.410;-1.966;2023-08-24T03:56:15;2.80;;;2.13;;
61590;SDS011;71994;52.410;-1.966;2023-08-24T03:59:21;2.90;;;2.10;;
61590;SDS011;71994;52.410;-1.966;2023-08-24T04:02:27;3.10;;;1.95;;
61590;SDS011;71994;52.410;-1.966;2023-08-24T04:05:37;3.00;;;2.03;;
61590;SDS011;71994;52.410;-1.966;2023-08-24T04:08:43;2.75;;;1.95;;
61590;SDS011;71994;52.410;-1.966;2023-08-24T04:11:49;3.00;;;2.13;;
61590;SDS011;71994;52.410;-1.966;2023-08-24T04:14:55;2.75;;;2.10;;
61590;SDS011;71994;52.410;-1.966;2023-08-24T04:18:03;2.35;;;1.95;;
61590;SDS011;71994;52.410;-1.966;2023-08-24T04:21:13;2.50;;;1.85;;
61590;SDS011;71994;52.410;-1.966;2023-08-24T04:24:19;2.97;;;1.95;;
61590;SDS011;71994;52.410;-1.966;2023-08-24T04:27:27;2.50;;;1.83;;
61590;SDS011;71994;52.410;-1.966;2023-08-24T04:30:34;2.70;;;1.80;;
61590;SDS011;71994;52.410;-1.966;2023-08-24T04:33:41;2.40;;;1.90;;
61590;SDS011;71994;52.410;-1.966;2023-08-24T04:36:51;3.45;;;1.90;;
61590;SDS011;71994;52.410;-1.966;2023-08-24T04:43:04;3.35;;;1.80;;
61590;SDS011;71994;52.410;-1.966;2023-08-24T04:46:11;3.33;;;1.80;;
61590;SDS011;71994;52.410;-1.966;2023-08-24T04:49:19;3.88;;;2.00;;
61590;SDS011;71994;52.410;-1.966;2023-08-24T04:52:28;4.47;;;2.10;;
61590;SDS011;71994;52.410;-1.966;2023-08-24T04:55:35;2.38;;;1.60;;
61590;SDS011;71994;52.410;-1.966;2023-08-24T04:58:51;2.83;;;1.85;;
61590;SDS011;71994;52.410;-1.966;2023-08-24T05:02:02;2.63;;;1.90;;
61590;SDS011;71994;52.410;-1.966;2023-08-24T05:05:09;2.63;;;1.75;;
61590;SDS011;71994;52.410;-1.966;2023-08-24T05:08:19;3.13;;;1.77;;
61590;SDS011;71994;52.410;-1.966;2023-08-24T05:11:26;2.15;;;1.50;;
61590;SDS011;71994;52.410;-1.966;2023-08-24T05:14:34;2.55;;;1.58;;
61590;SDS011;71994;52.410;-1.966;2023-08-24T05:17:41;2.60;;;1.63;;
61590;SDS011;71994;52.410;-1.966;2023-08-24T05:20:48;2.47;;;1.58;;
61590;SDS011;71994;52.410;-1.966;2023-08-24T05:23:57;3.08;;;1.45;;
61590;SDS011;71994;52.410;-1.966;2023-08-24T05:27:03;2.13;;;1.53;;
61590;SDS011;71994;52.410;-1.966;2023-08-24T05:30:10;2.78;;;1.58;;
61590;SDS011;71994;52.410;-1.966;2023-08-24T05:33:17;2.63;;;1.77;;
61590;SDS011;71994;52.410;-1.966;2023-08-24T05:36:23;3.15;;;1.35;;
61590;SDS011;71994;52.410;-1.966;2023-08-24T05:39:32;2.60;;;1.55;;
61590;SDS011;71994;52.410;-1.966;2023-08-24T05:42:39;2.10;;;1.45;;
61590;SDS011;71994;52.410;-1.966;2023-08-24T05:45:45;2.10;;;1.50;;
61590;SDS011;71994;52.410;-1.966;2023-08-24T05:48:55;2.42;;;1.50;;
61590;SDS011;71994;52.410;-1.966;2023-08-24T05:52:03;2.65;;;1.38;;
61590;SDS011;71994;52.410;-1.966;2023-08-24T05:55:13;2.38;;;1.40;;
61590;SDS011;71994;52.410;-1.966;2023-08-24T05:58:19;2.38;;;1.67;;
61590;SDS011;71994;52.410;-1.966;2023-08-24T06:01:25;2.05;;;1.30;;
61590;SDS011;71994;52.410;-1.966;2023-08-24T06:04:33;2.95;;;1.33;;
61590;SDS011;71994;52.410;-1.966;2023-08-24T06:07:40;2.05;;;1.30;;
61590;SDS011;71994;52.410;-1.966;2023-08-24T06:10:49;2.20;;;1.50;;
61590;SDS011;71994;52.410;-1.966;2023-08-24T06:13:55;2.67;;;1.40;;
61590;SDS011;71994;52.410;-1.966;2023-08-24T06:17:01;2.78;;;1.40;;
61590;SDS011;71994;52.410;-1.966;2023-08-24T06:20:08;2.78;;;1.25;;
61590;SDS011;71994;52.410;-1.966;2023-08-24T06:23:16;2.05;;;1.30;;
61590;SDS011;71994;52.410;-1.966;2023-08-24T06:26:25;1.92;;;1.20;;
61590;SDS011;71994;52.410;-1.966;2023-08-24T06:29:31;2.15;;;1.17;;
61590;SDS011;71994;52.410;-1.966;2023-08-24T06:32:38;2.65;;;1.38;;
61590;SDS011;71994;52.410;-1.966;2023-08-24T06:35:44;2.70;;;1.40;;
61590;SDS011;71994;52.410;-1.966;2023-08-24T06:38:50;2.42;;;1.30;;
61590;SDS011;71994;52.410;-1.966;2023-08-24T06:42:00;2.25;;;1.35;;
61590;SDS011;71994;52.410;-1.966;2023-08-24T06:45:07;3.00;;;1.58;;
61590;SDS011;71994;52.410;-1.966;2023-08-24T06:48:14;3.95;;;1.50;;
61590;SDS011;71994;52.410;-1.966;2023-08-24T06:51:21;2.58;;;1.30;;
61590;SDS011;71994;52.410;-1.966;2023-08-24T06:54:27;2.42;;;1.58;;
61590;SDS011;71994;52.410;-1.966;2023-08-24T06:57:38;2.42;;;1.40;;
61590;SDS011;71994;52.410;-1.966;2023-08-24T07:00:44;2.20;;;1.40;;
61590;SDS011;71994;52.410;-1.966;2023-08-24T07:03:53;2.15;;;1.45;;
61590;SDS011;71994;52.410;-1.966;2023-08-24T07:06:59;2.50;;;1.48;;
61590;SDS011;71994;52.410;-1.966;2023-08-24T07:10:06;3.28;;;1.65;;
61590;SDS011;71994;52.410;-1.966;2023-08-24T07:13:16;2.13;;;1.40;;
61590;SDS011;71994;52.410;-1.966;2023-08-24T07:16:22;2.78;;;1.27;;
61590;SDS011;71994;52.410;-1.966;2023-08-24T07:19:29;2.15;;;1.35;;
61590;SDS011;71994;52.410;-1.966;2023-08-24T07:22:39;2.95;;;1.40;;
61590;SDS011;71994;52.410;-1.966;2023-08-24T07:25:45;4.45;;;1.48;;
61590;SDS011;71994;52.410;-1.966;2023-08-24T07:28:55;2.42;;;1.45;;
61590;SDS011;71994;52.410;-1.966;2023-08-24T07:32:01;2.45;;;1.30;;
61590;SDS011;71994;52.410;-1.966;2023-08-24T07:35:08;2.80;;;1.55;;
61590;SDS011;71994;52.410;-1.966;2023-08-24T07:38:14;2.53;;;1.65;;
61590;SDS011;71994;52.410;-1.966;2023-08-24T07:41:21;2.70;;;1.40;;
61590;SDS011;71994;52.410;-1.966;2023-08-24T07:44:30;3.05;;;1.30;;
61590;SDS011;71994;52.410;-1.966;2023-08-24T07:47:38;3.65;;;1.55;;
61590;SDS011;71994;52.410;-1.966;2023-08-24T07:50:44;3.00;;;1.70;;
61590;SDS011;71994;52.410;-1.966;2023-08-24T07:53:51;2.15;;;1.10;;
61590;SDS011;71994;52.410;-1.966;2023-08-24T07:57:00;1.95;;;1.30;;
61590;SDS011;71994;52.410;-1.966;2023-08-24T08:00:10;2.50;;;1.45;;
61590;SDS011;71994;52.410;-1.966;2023-08-24T08:03:17;2.38;;;1.23;;
61590;SDS011;71994;52.410;-1.966;2023-08-24T08:06:23;3.35;;;1.23;;
61590;SDS011;71994;52.410;-1.966;2023-08-24T08:09:30;3.63;;;1.50;;
61590;SDS011;71994;52.410;-1.966;2023-08-24T08:12:36;1.73;;;1.15;;
61590;SDS011;71994;52.410;-1.966;2023-08-24T08:15:48;1.63;;;1.03;;
61590;SDS011;71994;52.410;-1.966;2023-08-24T08:18:55;3.03;;;1.60;;
61590;SDS011;71994;52.410;-1.966;2023-08-24T08:22:01;2.33;;;1.40;;
61590;SDS011;71994;52.410;-1.966;2023-08-24T08:25:08;2.10;;;1.17;;
61590;SDS011;71994;52.410;-1.966;2023-08-24T08:28:15;2.60;;;1.35;;
61590;SDS011;71994;52.410;-1.966;2023-08-24T08:31:24;1.70;;;1.30;;
61590;SDS011;71994;52.410;-1.966;2023-08-24T08:34:31;2.17;;;1.30;;
61590;SDS011;71994;52.410;-1.966;2023-08-24T08:37:37;2.13;;;1.30;;
61590;SDS011;71994;52.410;-1.966;2023-08-24T08:40:44;2.45;;;1.35;;
61590;SDS011;71994;52.410;-1.966;2023-08-24T08:43:56;2.03;;;1.17;;
61590;SDS011;71994;52.410;-1.966;2023-08-24T08:47:05;2.97;;;1.40;;
61590;SDS011;71994;52.410;-1.966;2023-08-24T08:50:12;2.22;;;1.40;;
61590;SDS011;71994;52.410;-1.966;2023-08-24T08:53:21;2.15;;;1.38;;
61590;SDS011;71994;52.410;-1.966;2023-08-24T08:56:27;1.90;;;1.10;;
61590;SDS011;71994;52.410;-1.966;2023-08-24T08:59:35;1.88;;;1.10;;
61590;SDS011;71994;52.410;-1.966;2023-08-24T09:02:45;2.75;;;1.23;;
61590;SDS011;71994;52.410;-1.966;2023-08-24T09:05:53;1.85;;;1.20;;
61590;SDS011;71994;52.410;-1.966;2023-08-24T09:08:59;3.25;;;1.20;;
61590;SDS011;71994;52.410;-1.966;2023-08-24T09:12:08;1.63;;;1.10;;
61590;SDS011;71994;52.410;-1.966;2023-08-24T09:15:23;2.72;;;1.23;;
61590;SDS011;71994;52.410;-1.966;2023-08-24T09:18:37;1.92;;;1.23;;
61590;SDS011;71994;52.410;-1.966;2023-08-24T09:21:44;1.77;;;1.23;;
61590;SDS011;71994;52.410;-1.966;2023-08-24T09:24:51;2.03;;;1.05;;
61590;SDS011;71994;52.410;-1.966;2023-08-24T09:27:57;1.60;;;1.20;;
61590;SDS011;71994;52.410;-1.966;2023-08-24T09:31:04;1.67;;;1.08;;
61590;SDS011;71994;52.410;-1.966;2023-08-24T09:34:14;2.53;;;1.20;;
61590;SDS011;71994;52.410;-1.966;2023-08-24T09:37:20;1.73;;;1.00;;
61590;SDS011;71994;52.410;-1.966;2023-08-24T09:40:27;2.05;;;1.27;;
61590;SDS011;71994;52.410;-1.966;2023-08-24T09:43:33;1.80;;;1.20;;
61590;SDS011;71994;52.410;-1.966;2023-08-24T09:46:40;2.03;;;1.10;;
61590;SDS011;71994;52.410;-1.966;2023-08-24T09:49:49;1.83;;;1.10;;
61590;SDS011;71994;52.410;-1.966;2023-08-24T09:52:56;1.95;;;1.13;;
61590;SDS011;71994;52.410;-1.966;2023-08-24T09:56:05;2.45;;;1.23;;
61590;SDS011;71994;52.410;-1.966;2023-08-24T09:59:15;1.80;;;1.13;;
61590;SDS011;71994;52.410;-1.966;2023-08-24T10:02:27;1.83;;;1.20;;
61590;SDS011;71994;52.410;-1.966;2023-08-24T10:05:41;1.88;;;1.25;;
61590;SDS011;71994;52.410;-1.966;2023-08-24T10:11:58;1.67;;;1.13;;
61590;SDS011;71994;52.410;-1.966;2023-08-24T10:15:10;1.63;;;1.10;;
61590;SDS011;71994;52.410;-1.966;2023-08-24T10:18:17;1.85;;;1.10;;
61590;SDS011;71994;52.410;-1.966;2023-08-24T10:24:35;1.47;;;1.10;;
61590;SDS011;71994;52.410;-1.966;2023-08-24T10:27:46;1.83;;;1.10;;
61590;SDS011;71994;52.410;-1.966;2023-08-24T10:30:53;2.13;;;1.20;;
61590;SDS011;71994;52.410;-1.966;2023-08-24T10:34:05;2.28;;;1.30;;
61590;SDS011;71994;52.410;-1.966;2023-08-24T10:37:15;1.60;;;1.27;;
61590;SDS011;71994;52.410;-1.966;2023-08-24T10:40:31;2.10;;;1.20;;
61590;SDS011;71994;52.410;-1.966;2023-08-24T10:43:38;2.45;;;1.15;;
61590;SDS011;71994;52.410;-1.966;2023-08-24T10:46:50;3.17;;;1.20;;
61590;SDS011;71994;52.410;-1.966;2023-08-24T10:50:11;2.15;;;1.20;;
61590;SDS011;71994;52.410;-1.966;2023-08-24T10:56:52;2.28;;;1.17;;
61590;SDS011;71994;52.410;-1.966;2023-08-24T11:00:03;1.30;;;1.10;;
61590;SDS011;71994;52.410;-1.966;2023-08-24T11:03:12;2.00;;;1.20;;
61590;SDS011;71994;52.410;-1.966;2023-08-24T11:06:50;1.42;;;1.10;;
61590;SDS011;71994;52.410;-1.966;2023-08-24T11:10:00;1.77;;;1.13;;
61590;SDS011;71994;52.410;-1.966;2023-08-24T11:13:18;2.17;;;1.20;;
61590;SDS011;71994;52.410;-1.966;2023-08-24T11:19:47;1.40;;;0.90;;
61590;SDS011;71994;52.410;-1.966;2023-08-24T11:22:55;1.58;;;1.05;;
61590;SDS011;71994;52.410;-1.966;2023-08-24T11:26:04;1.77;;;1.10;;
61590;SDS011;71994;52.410;-1.966;2023-08-24T11:29:11;1.53;;;1.07;;
61590;SDS011;71994;52.410;-1.966;2023-08-24T11:32:18;1.58;;;0.93;;
61590;SDS011;71994;52.410;-1.966;2023-08-24T11:35:24;1.52;;;0.93;;
61590;SDS011;71994;52.410;-1.966;2023-08-24T11:38:37;1.50;;;0.90;;
61590;SDS011;71994;52.410;-1.966;2023-08-24T11:41:46;1.95;;;0.98;;
61590;SDS011;71994;52.410;-1.966;2023-08-24T11:45:04;1.80;;;0.97;;
61590;SDS011;71994;52.410;-1.966;2023-08-24T11:48:17;1.10;;;0.70;;
61590;SDS011;71994;52.410;-1.966;2023-08-24T11:51:25;2.30;;;1.00;;
61590;SDS011;71994;52.410;-1.966;2023-08-24T11:54:32;1.45;;;0.88;;
61590;SDS011;71994;52.410;-1.966;2023-08-24T11:57:44;1.60;;;1.00;;
61590;SDS011;71994;52.410;-1.966;2023-08-24T12:03:56;1.30;;;0.80;;
61590;SDS011;71994;52.410;-1.966;2023-08-24T12:07:08;1.20;;;0.82;;
61590;SDS011;71994;52.410;-1.966;2023-08-24T12:10:18;1.80;;;1.10;;
61590;SDS011;71994;52.410;-1.966;2023-08-24T12:13:32;1.20;;;0.80;;
61590;SDS011;71994;52.410;-1.966;2023-08-24T12:16:38;2.03;;;1.00;;
61590;SDS011;71994;52.410;-1.966;2023-08-24T12:19:56;1.73;;;1.03;;
61590;SDS011;71994;52.410;-1.966;2023-08-24T12:23:09;1.45;;;1.00;;
61590;SDS011;71994;52.410;-1.966;2023-08-24T12:26:17;1.67;;;0.90;;
61590;SDS011;71994;52.410;-1.966;2023-08-24T12:29:28;1.47;;;0.80;;
61590;SDS011;71994;52.410;-1.966;2023-08-24T12:32:44;1.33;;;0.80;;
61590;SDS011;71994;52.410;-1.966;2023-08-24T12:35:52;2.08;;;0.98;;
61590;SDS011;71994;52.410;-1.966;2023-08-24T12:39:03;1.83;;;1.00;;
61590;SDS011;71994;52.410;-1.966;2023-08-24T12:42:10;1.95;;;0.73;;
61590;SDS011;71994;52.410;-1.966;2023-08-24T12:45:19;1.83;;;1.02;;
61590;SDS011;71994;52.410;-1.966;2023-08-24T12:48:26;1.25;;;0.75;;
61590;SDS011;71994;52.410;-1.966;2023-08-24T12:51:32;1.02;;;0.80;;
61590;SDS011;71994;52.410;-1.966;2023-08-24T12:54:41;2.47;;;1.02;;
61590;SDS011;71994;52.410;-1.966;2023-08-24T12:57:53;1.10;;;0.77;;
61590;SDS011;71994;52.410;-1.966;2023-08-24T13:01:04;1.75;;;0.90;;
61590;SDS011;71994;52.410;-1.966;2023-08-24T13:04:12;1.40;;;0.80;;
61590;SDS011;71994;52.410;-1.966;2023-08-24T13:07:20;1.25;;;0.98;;
61590;SDS011;71994;52.410;-1.966;2023-08-24T13:10:26;1.10;;;0.90;;
61590;SDS011;71994;52.410;-1.966;2023-08-24T13:16:45;1.20;;;0.70;;
61590;SDS011;71994;52.410;-1.966;2023-08-24T13:19:52;1.27;;;0.95;;
61590;SDS011;71994;52.410;-1.966;2023-08-24T13:23:01;1.25;;;0.85;;
61590;SDS011;71994;52.410;-1.966;2023-08-24T13:26:12;1.10;;;0.70;;
61590;SDS011;71994;52.410;-1.966;2023-08-24T13:29:30;1.40;;;1.00;;
61590;SDS011;71994;52.410;-1.966;2023-08-24T13:32:39;1.63;;;0.80;;
61590;SDS011;71994;52.410;-1.966;2023-08-24T13:35:45;1.38;;;0.90;;
61590;SDS011;71994;52.410;-1.966;2023-08-24T13:38:58;1.13;;;0.90;;
61590;SDS011;71994;52.410;-1.966;2023-08-24T13:42:05;1.17;;;0.80;;
61590;SDS011;71994;52.410;-1.966;2023-08-24T13:45:11;1.38;;;0.90;;
61590;SDS011;71994;52.410;-1.966;2023-08-24T13:48:21;1.45;;;0.90;;
61590;SDS011;71994;52.410;-1.966;2023-08-24T13:51:27;1.65;;;0.95;;
61590;SDS011;71994;52.410;-1.966;2023-08-24T13:54:36;1.30;;;0.70;;
61590;SDS011;71994;52.410;-1.966;2023-08-24T13:57:45;1.33;;;0.93;;
61590;SDS011;71994;52.410;-1.966;2023-08-24T14:00:54;1.73;;;0.90;;
61590;SDS011;71994;52.410;-1.966;2023-08-24T14:04:04;2.67;;;1.10;;
61590;SDS011;71994;52.410;-1.966;2023-08-24T14:07:10;0.93;;;0.70;;
61590;SDS011;71994;52.410;-1.966;2023-08-24T14:10:18;1.20;;;0.80;;
61590;SDS011;71994;52.410;-1.966;2023-08-24T14:13:27;1.70;;;1.00;;
61590;SDS011;71994;52.410;-1.966;2023-08-24T14:16:34;2.00;;;0.85;;
61590;SDS011;71994;52.410;-1.966;2023-08-24T14:19:43;1.75;;;0.65;;
61590;SDS011;71994;52.410;-1.966;2023-08-24T14:22:51;0.95;;;0.80;;
61590;SDS011;71994;52.410;-1.966;2023-08-24T14:25:57;1.02;;;0.75;;
61590;SDS011;71994;52.410;-1.966;2023-08-24T14:29:03;1.20;;;0.80;;
61590;SDS011;71994;52.410;-1.966;2023-08-24T14:32:14;1.00;;;0.73;;
61590;SDS011;71994;52.410;-1.966;2023-08-24T14:35:23;1.67;;;1.00;;
61590;SDS011;71994;52.410;-1.966;2023-08-24T14:38:29;1.40;;;0.82;;
61590;SDS011;71994;52.410;-1.966;2023-08-24T14:41:36;1.13;;;0.80;;
61590;SDS011;71994;52.410;-1.966;2023-08-24T14:44:42;1.10;;;0.70;;
61590;SDS011;71994;52.410;-1.966;2023-08-24T14:47:57;1.05;;;0.80;;
61590;SDS011;71994;52.410;-1.966;2023-08-24T14:51:06;1.80;;;0.93;;
61590;SDS011;71994;52.410;-1.966;2023-08-24T14:54:12;1.00;;;0.80;;
61590;SDS011;71994;52.410;-1.966;2023-08-24T14:57:20;1.30;;;0.88;;
61590;SDS011;71994;52.410;-1.966;2023-08-24T15:00:27;1.33;;;0.80;;
61590;SDS011;71994;52.410;-1.966;2023-08-24T15:03:33;1.58;;;0.93;;
61590;SDS011;71994;52.410;-1.966;2023-08-24T15:06:42;1.13;;;0.80;;
61590;SDS011;71994;52.410;-1.966;2023-08-24T15:09:50;1.50;;;0.88;;
61590;SDS011;71994;52.410;-1.966;2023-08-24T15:12:57;1.40;;;1.00;;
61590;SDS011;71994;52.410;-1.966;2023-08-24T15:16:03;1.40;;;0.95;;
61590;SDS011;71994;52.410;-1.966;2023-08-24T15:19:10;0.98;;;0.80;;
61590;SDS011;71994;52.410;-1.966;2023-08-24T15:22:21;1.53;;;0.90;;
61590;SDS011;71994;52.410;-1.966;2023-08-24T15:25:31;1.20;;;0.82;;
61590;SDS011;71994;52.410;-1.966;2023-08-24T15:28:40;1.30;;;1.00;;
61590;SDS011;71994;52.410;-1.966;2023-08-24T15:32:14;1.83;;;0.80;;
61590;SDS011;71994;52.410;-1.966;2023-08-24T15:35:20;0.95;;;0.70;;
61590;SDS011;71994;52.410;-1.966;2023-08-24T15:38:30;1.20;;;0.90;;
61590;SDS011;71994;52.410;-1.966;2023-08-24T15:41:39;1.10;;;0.80;;
61590;SDS011;71994;52.410;-1.966;2023-08-24T15:44:45;1.50;;;0.90;;
61590;SDS011;71994;52.410;-1.966;2023-08-24T15:47:52;1.23;;;0.90;;
61590;SDS011;71994;52.410;-1.966;2023-08-24T15:51:00;1.10;;;0.80;;
61590;SDS011;71994;52.410;-1.966;2023-08-24T15:54:11;1.10;;;0.90;;
61590;SDS011;71994;52.410;-1.966;2023-08-24T15:57:20;1.50;;;0.90;;
61590;SDS011;71994;52.410;-1.966;2023-08-24T16:00:28;1.30;;;0.80;;
61590;SDS011;71994;52.410;-1.966;2023-08-24T16:03:38;1.73;;;0.80;;
61590;SDS011;71994;52.410;-1.966;2023-08-24T16:06:45;1.55;;;0.60;;
61590;SDS011;71994;52.410;-1.966;2023-08-24T16:09:55;1.10;;;0.82;;
61590;SDS011;71994;52.410;-1.966;2023-08-24T16:13:04;1.10;;;0.65;;
61590;SDS011;71994;52.410;-1.966;2023-08-24T16:16:10;2.90;;;0.82;;
61590;SDS011;71994;52.410;-1.966;2023-08-24T16:19:17;1.42;;;0.90;;
61590;SDS011;71994;52.410;-1.966;2023-08-24T16:22:27;2.80;;;0.90;;
61590;SDS011;71994;52.410;-1.966;2023-08-24T16:25:42;2.20;;;1.00;;
61590;SDS011;71994;52.410;-1.966;2023-08-24T16:28:48;2.08;;;0.90;;
61590;SDS011;71994;52.410;-1.966;2023-08-24T16:31:55;1.38;;;0.88;;
61590;SDS011;71994;52.410;-1.966;2023-08-24T16:35:04;1.97;;;0.97;;
61590;SDS011;71994;52.410;-1.966;2023-08-24T16:38:13;1.30;;;0.93;;
61590;SDS011;71994;52.410;-1.966;2023-08-24T16:41:25;1.35;;;0.80;;
61590;SDS011;71994;52.410;-1.966;2023-08-24T16:44:35;1.50;;;0.90;;
61590;SDS011;71994;52.410;-1.966;2023-08-24T16:47:44;1.67;;;0.80;;
61590;SDS011;71994;52.410;-1.966;2023-08-24T16:50:50;2.10;;;1.05;;
61590;SDS011;71994;52.410;-1.966;2023-08-24T16:54:00;1.90;;;0.90;;
61590;SDS011;71994;52.410;-1.966;2023-08-24T16:57:10;1.92;;;0.90;;
61590;SDS011;71994;52.410;-1.966;2023-08-24T17:00:19;2.03;;;0.90;;
61590;SDS011;71994;52.410;-1.966;2023-08-24T17:03:26;1.52;;;1.00;;
61590;SDS011;71994;52.410;-1.966;2023-08-24T17:06:33;1.85;;;1.00;;
61590;SDS011;71994;52.410;-1.966;2023-08-24T17:09:39;1.77;;;1.10;;
61590;SDS011;71994;52.410;-1.966;2023-08-24T17:12:53;2.03;;;0.82;;
61590;SDS011;71994;52.410;-1.966;2023-08-24T17:15:59;1.33;;;0.93;;
61590;SDS011;71994;52.410;-1.966;2023-08-24T17:19:08;1.40;;;0.90;;
61590;SDS011;71994;52.410;-1.966;2023-08-24T17:22:16;1.42;;;0.90;;
61590;SDS011;71994;52.410;-1.966;2023-08-24T17:25:25;1.80;;;0.95;;
61590;SDS011;71994;52.410;-1.966;2023-08-24T17:28:37;1.15;;;0.90;;
61590;SDS011;71994;52.410;-1.966;2023-08-24T17:31:54;1.58;;;1.00;;
61590;SDS011;71994;52.410;-1.966;2023-08-24T17:35:03;1.60;;;1.00;;
61590;SDS011;71994;52.410;-1.966;2023-08-24T17:38:12;2.50;;;1.07;;
61590;SDS011;71994;52.410;-1.966;2023-08-24T17:41:19;1.95;;;1.20;;
61590;SDS011;71994;52.410;-1.966;2023-08-24T17:44:31;1.20;;;0.95;;
61590;SDS011;71994;52.410;-1.966;2023-08-24T17:47:39;1.30;;;0.93;;
61590;SDS011;71994;52.410;-1.966;2023-08-24T17:50:51;1.40;;;0.90;;
61590;SDS011;71994;52.410;-1.966;2023-08-24T17:54:00;1.65;;;1.00;;
61590;SDS011;71994;52.410;-1.966;2023-08-24T17:57:08;1.17;;;0.82;;
61590;SDS011;71994;52.410;-1.966;2023-08-24T18:00:18;1.50;;;1.00;;
61590;SDS011;71994;52.410;-1.966;2023-08-24T18:06:36;2.07;;;1.00;;
61590;SDS011;71994;52.410;-1.966;2023-08-24T18:09:46;1.67;;;1.10;;
61590;SDS011;71994;52.410;-1.966;2023-08-24T18:12:55;1.60;;;1.00;;
61590;SDS011;71994;52.410;-1.966;2023-08-24T18:16:07;1.90;;;1.00;;
61590;SDS011;71994;52.410;-1.966;2023-08-24T18:19:14;1.45;;;1.00;;
61590;SDS011;71994;52.410;-1.966;2023-08-24T18:22:22;2.13;;;0.90;;
61590;SDS011;71994;52.410;-1.966;2023-08-24T18:25:29;1.83;;;1.02;;
61590;SDS011;71994;52.410;-1.966;2023-08-24T18:28:39;1.40;;;1.02;;
61590;SDS011;71994;52.410;-1.966;2023-08-24T18:32:01;1.70;;;1.08;;
61590;SDS011;71994;52.410;-1.966;2023-08-24T18:38:14;2.10;;;1.00;;
61590;SDS011;71994;52.410;-1.966;2023-08-24T18:41:21;1.95;;;1.10;;
61590;SDS011;71994;52.410;-1.966;2023-08-24T18:44:27;2.33;;;1.05;;
61590;SDS011;71994;52.410;-1.966;2023-08-24T18:47:36;1.33;;;1.00;;
61590;SDS011;71994;52.410;-1.966;2023-08-24T18:50:44;1.60;;;0.90;;
61590;SDS011;71994;52.410;-1.966;2023-08-24T18:53:50;2.33;;;1.20;;
61590;SDS011;71994;52.410;-1.966;2023-08-24T18:56:59;2.47;;;1.20;;
61590;SDS011;71994;52.410;-1.966;2023-08-24T19:00:06;1.20;;;0.98;;
61590;SDS011;71994;52.410;-1.966;2023-08-24T19:03:16;1.58;;;1.02;;
61590;SDS011;71994;52.410;-1.966;2023-08-24T19:06:25;2.55;;;1.23;;